createdAt,value
2022-10-22T00:02:07.451Z,22.42
2022-10-22T00:08:32.528Z,22.39
2022-10-22T00:15:15.446Z,22.42
2022-10-22T00:21:45.357Z,22.38
2022-10-22T00:28:07.485Z,22.38
2022-10-22T00:34:39.910Z,22.45
2022-10-22T00:47:49.044Z,22.35
2022-10-22T00:54:29.521Z,22.41
2022-10-22T01:01:01.637Z,22.36
2022-10-22T01:07:41.782Z,22.34
2022-10-22T01:14:39.465Z,22.34
2022-10-22T01:21:41.874Z,22.29
2022-10-22T01:28:50.866Z,22.36
2022-10-22T01:35:42.406Z,22.35
2022-10-22T01:42:22.449Z,22.36
2022-10-22T01:49:26.507Z,22.4
2022-10-22T01:56:28.774Z,22.36
2022-10-22T02:03:37.804Z,22.35
2022-10-22T02:10:36.552Z,22.37
2022-10-22T02:17:22.520Z,22.36
2022-10-22T02:24:05.830Z,22.33
2022-10-22T02:31:05.602Z,22.39
2022-10-22T02:37:57.857Z,22.38
2022-10-22T02:44:47.191Z,22.47
2022-10-22T02:51:20.506Z,22.34
2022-10-22T02:57:45.477Z,22.6
2022-10-22T03:04:09.557Z,22.39
2022-10-22T03:10:37.547Z,22.51
2022-10-22T03:17:07.683Z,22.51
2022-10-22T03:23:38.924Z,22.49
2022-10-22T03:30:17.396Z,22.48
2022-10-22T03:36:46.475Z,22.39
2022-10-22T03:43:27.543Z,22.39
2022-10-22T03:50:00.029Z,22.31
2022-10-22T03:56:36.724Z,22.33
2022-10-22T04:03:07.532Z,22.33
2022-10-22T04:09:33.575Z,22.34
2022-10-22T04:16:00.753Z,22.34
2022-10-22T04:22:35.507Z,22.29
2022-10-22T04:29:06.961Z,22.35
2022-10-22T04:35:56.958Z,22.38
2022-10-22T04:42:27.547Z,22.31
2022-10-22T04:48:51.601Z,22.27
2022-10-22T04:55:22.470Z,22.27
2022-10-22T05:02:04.688Z,22.31
2022-10-22T05:08:34.076Z,22.3
2022-10-22T05:15:04.597Z,22.31
2022-10-22T05:28:04.798Z,22.43
2022-10-22T05:34:41.837Z,22.54
2022-10-22T05:41:14.775Z,22.56
2022-10-22T05:47:43.816Z,22.54
2022-10-22T05:54:31.798Z,22.56
2022-10-22T06:00:57.829Z,22.52
2022-10-22T06:07:35.847Z,22.52
2022-10-22T06:14:08.786Z,22.49
2022-10-22T06:20:48.953Z,22.54
2022-10-22T06:27:15.857Z,22.51
2022-10-22T06:33:43.161Z,22.5
2022-10-22T06:40:15.857Z,22.48
2022-10-22T06:46:55.831Z,22.45
2022-10-22T06:53:25.237Z,22.51
2022-10-22T06:59:57.904Z,22.49
2022-10-22T07:06:40.879Z,22.48
2022-10-22T07:13:13.976Z,22.52
2022-10-22T07:19:56.125Z,22.54
2022-10-22T07:26:26.729Z,22.53
2022-10-22T07:33:01.830Z,22.53
2022-10-22T07:39:38.813Z,22.54
2022-10-22T07:46:12.647Z,22.6
2022-10-22T07:52:44.266Z,22.62
2022-10-22T07:59:16.128Z,22.38
2022-10-22T08:05:46.858Z,22.35
2022-10-22T08:12:14.487Z,22.36
2022-10-22T08:18:42.140Z,22.36
2022-10-22T08:25:09.992Z,22.35
2022-10-22T08:31:39.536Z,22.35
2022-10-22T08:38:01.897Z,22.35
2022-10-22T08:44:55.031Z,22.35
2022-10-22T08:51:42.264Z,22.34
2022-10-22T08:58:33.990Z,22.42
2022-10-22T09:05:42.918Z,22.41
2022-10-22T09:12:28.317Z,22.36
2022-10-22T09:19:14.800Z,22.44
2022-10-22T09:26:18.919Z,22.36
2022-10-22T09:32:53.212Z,22.36
2022-10-22T09:39:47.828Z,22.36
2022-10-22T09:46:22.886Z,22.35
2022-10-22T09:53:16.250Z,22.38
2022-10-22T10:00:08.011Z,22.4
2022-10-22T10:06:54.084Z,22.51
2022-10-22T10:13:47.896Z,22.45
2022-10-22T10:20:52.422Z,22.55
2022-10-22T10:28:05.895Z,22.48
2022-10-22T10:35:07.341Z,22.56
2022-10-22T10:42:18.124Z,22.78
2022-10-22T10:49:30.318Z,22.51
2022-10-22T10:56:39.591Z,22.49
2022-10-22T11:03:43.368Z,22.48
2022-10-22T11:10:52.057Z,22.56
2022-10-22T11:18:06.429Z,22.51
2022-10-22T11:25:23.637Z,22.62
2022-10-22T11:32:44.477Z,22.68
2022-10-22T11:39:42.019Z,22.7
2022-10-22T11:46:53.030Z,22.65
2022-10-22T11:54:02.299Z,22.63
2022-10-22T12:00:54.877Z,22.65
2022-10-22T12:08:09.506Z,22.71
2022-10-22T12:15:16.019Z,22.68
2022-10-22T12:22:25.126Z,22.87
2022-10-22T12:29:21.253Z,22.73
2022-10-22T12:36:10.222Z,22.74
2022-10-22T12:42:56.825Z,22.73
2022-10-22T12:49:36.163Z,22.78
2022-10-22T12:56:30.103Z,22.91
2022-10-22T13:03:15.999Z,22.98
2022-10-22T13:10:14.504Z,23.01
2022-10-22T13:17:02.907Z,23.02
2022-10-22T13:23:48.165Z,23.23
2022-10-22T13:30:53.137Z,23.48
2022-10-22T13:37:35.984Z,23.38
2022-10-22T13:44:12.243Z,23.27
2022-10-22T13:50:50.926Z,23.25
2022-10-22T13:57:32.144Z,23.27
2022-10-22T14:04:12.194Z,23.22
2022-10-22T14:11:01.329Z,23.15
2022-10-22T14:17:37.124Z,23.21
2022-10-22T14:24:32.845Z,23.27
2022-10-22T14:31:08.893Z,23.28
2022-10-22T14:37:57.122Z,23.41
2022-10-22T14:44:41.148Z,23.41
2022-10-22T14:51:16.940Z,23.48
2022-10-22T14:57:52.959Z,23.46
2022-10-22T15:04:25.913Z,23.38
2022-10-22T15:11:00.289Z,23.38
2022-10-22T15:17:41.373Z,23.33
2022-10-22T15:24:11.101Z,23.36
2022-10-22T15:30:45.058Z,23.32
2022-10-22T15:37:33.435Z,23.3
2022-10-22T15:44:16.124Z,23.25
2022-10-22T15:51:01.258Z,23.29
2022-10-22T15:57:35.230Z,23.21
2022-10-22T16:04:09.216Z,23.2
2022-10-22T16:10:47.583Z,23.17
2022-10-22T16:17:21.711Z,23.14
2022-10-22T16:23:54.709Z,23.18
2022-10-22T16:30:32.157Z,23.17
2022-10-22T16:37:03.036Z,23.16
2022-10-22T16:43:40.409Z,23.18
2022-10-22T16:50:06.278Z,23.16
2022-10-22T16:56:39.284Z,23.13
2022-10-22T17:03:22.500Z,23.11
2022-10-22T17:09:55.184Z,23.07
2022-10-22T17:16:36.059Z,23.06
2022-10-22T17:23:13.411Z,23.02
2022-10-22T17:29:54.151Z,23.05
2022-10-22T17:36:34.980Z,23.03
2022-10-22T17:43:11.594Z,23.01
2022-10-22T17:49:41.220Z,22.95
2022-10-22T17:56:14.647Z,22.93
2022-10-22T18:02:51.284Z,22.93
2022-10-22T18:09:23.206Z,22.89
2022-10-22T18:15:57.229Z,22.9
2022-10-22T18:22:30.298Z,22.89
2022-10-22T18:28:59.478Z,22.89
2022-10-22T18:35:39.853Z,22.87
2022-10-22T18:42:26.341Z,22.88
2022-10-22T18:49:22.749Z,22.84
2022-10-22T18:56:00.374Z,22.82
2022-10-22T19:02:36.175Z,22.9
2022-10-22T19:09:07.246Z,22.87
2022-10-22T19:15:53.214Z,22.85
2022-10-22T19:22:29.305Z,22.82
2022-10-22T19:29:10.831Z,22.79
2022-10-22T19:35:46.226Z,22.86
2022-10-22T19:42:26.318Z,22.77
2022-10-22T19:49:04.201Z,22.84
2022-10-22T19:55:33.497Z,22.82
2022-10-22T20:02:07.448Z,22.83
2022-10-22T20:08:52.314Z,22.78
2022-10-22T20:15:29.289Z,22.77
2022-10-22T20:22:12.553Z,22.74
2022-10-22T20:28:45.614Z,22.73
2022-10-22T20:35:22.867Z,22.89
2022-10-22T20:41:53.339Z,22.63
2022-10-22T20:48:28.667Z,22.83
2022-10-22T20:55:02.400Z,22.63
2022-10-22T21:01:29.289Z,22.63
2022-10-22T21:07:56.223Z,22.77
2022-10-22T21:14:33.658Z,22.64
2022-10-22T21:21:15.856Z,22.65
2022-10-22T21:27:50.236Z,22.59
2022-10-22T21:34:21.799Z,22.52
2022-10-22T21:41:02.398Z,22.61
2022-10-22T21:47:42.573Z,22.68
2022-10-22T21:54:12.622Z,22.62
2022-10-22T22:00:42.272Z,22.57
2022-10-22T22:07:15.253Z,22.57
2022-10-22T22:13:41.295Z,22.55
2022-10-22T22:20:09.287Z,22.56
2022-10-22T22:26:45.319Z,22.64
2022-10-22T22:33:20.528Z,22.74
2022-10-22T22:39:59.513Z,22.58
2022-10-22T22:46:22.366Z,22.51
2022-10-22T22:52:47.561Z,22.51
2022-10-22T22:59:15.333Z,22.5
2022-10-22T23:05:53.300Z,22.48
2022-10-22T23:12:23.983Z,22.52
2022-10-22T23:18:48.781Z,22.52
2022-10-22T23:25:15.291Z,22.5
2022-10-22T23:31:49.376Z,22.5
2022-10-22T23:38:15.409Z,22.48
2022-10-22T23:44:45.163Z,22.44
2022-10-22T23:51:18.323Z,22.47
2022-10-22T23:57:42.670Z,22.48
